Time,TemperatureF,DewpointF,PressureIn,WindDirection,WindDirectionDegrees,WindSpeedMPH,WindSpeedGustMPH,Humidity,HourlyPrecipIn,Conditions,Clouds,dailyrainin,SoftwareType,DateUTC
2013-03-12 00:00:00,55.5,44.3,29.67,SSW,194,3.6,8.1,66,0.00,,,0.00,WeatherDisplay:10.37,2013-03-12 04:00:00,
2013-03-12 00:05:00,55.6,44.4,29.67,South,185,2.8,11.5,66,0.00,,,0.00,WeatherDisplay:10.37,2013-03-12 04:05:00,
2013-03-12 00:10:00,55.6,44.8,29.67,SSW,192,5.5,11.5,67,0.00,,,0.00,WeatherDisplay:10.37,2013-03-12 04:10:00,
2013-03-12 00:15:00,55.6,44.8,29.67,SW,225,4.6,11.5,67,0.00,,,0.00,WeatherDisplay:10.37,2013-03-12 04:15:00,
2013-03-12 00:20:00,55.6,45.2,29.67,SSE,152,1.9,12.0,68,0.00,,,0.00,WeatherDisplay:10.37,2013-03-12 04:20:00,
2013-03-12 00:25:00,55.5,45.1,29.67,SW,221,4.6,12.0,68,0.00,,,0.00,WeatherDisplay:10.37,2013-03-12 04:25:00,
2013-03-12 00:30:00,55.4,45.4,29.67,SSE,163,2.0,12.0,69,0.00,,,0.00,WeatherDisplay:10.37,2013-03-12 04:30:00,
2013-03-12 00:35:00,55.3,45.7,29.67,South,170,3.7,12.0,70,0.00,,,0.00,WeatherDisplay:10.37,2013-03-12 04:35:00,
2013-03-12 00:40:00,55.3,45.7,29.67,West,278,3.7,12.0,70,0.00,,,0.00,WeatherDisplay:10.37,2013-03-12 04:40:00,
2013-03-12 00:45:00,55.2,45.6,29.67,WSW,248,3.3,12.0,70,0.00,,,0.00,WeatherDisplay:10.37,2013-03-12 04:45:00,
2013-03-12 00:50:00,55.3,45.7,29.68,SSE,165,3.0,12.0,70,0.00,,,0.00,WeatherDisplay:10.37,2013-03-12 04:50:00,
2013-03-12 00:55:00,55.5,45.9,29.68,SSE,153,2.9,12.0,70,0.00,,,0.00,WeatherDisplay:10.37,2013-03-12 04:55:00,
2013-03-12 01:00:00,55.5,45.9,29.68,NNE,22,1.6,12.0,70,0.00,,,0.00,WeatherDisplay:10.37,2013-03-12 05:00:00,
2013-03-12 01:05:00,55.5,45.9,29.69,South,174,2.1,12.0,70,0.00,,,0.00,WeatherDisplay:10.37,2013-03-12 05:05:00,
2013-03-12 01:10:00,55.5,45.9,29.69,WSW,248,3.1,12.0,70,0.00,,,0.00,WeatherDisplay:10.37,2013-03-12 05:10:00,
2013-03-12 01:15:00,55.4,46.2,29.70,SW,225,3.4,12.0,71,0.00,,,0.00,WeatherDisplay:10.37,2013-03-12 05:15:00,
2013-03-12 01:20:00,55.0,47.2,29.71,West,281,2.1,12.0,75,0.00,,,0.01,WeatherDisplay:10.37,2013-03-12 05:20:00,
2013-03-12 01:25:00,52.5,46.8,29.71,West,260,2.5,12.0,81,0.03,RA,,0.03,WeatherDisplay:10.37,2013-03-12 05:25:00,
2013-03-12 01:30:00,50.6,46.6,29.71,NW,305,0.8,12.0,86,0.06,RA,,0.06,WeatherDisplay:10.37,2013-03-12 05:30:00,
2013-03-12 01:35:00,49.6,46.2,29.72,WSW,248,5.3,12.0,88,0.07,RA,,0.07,WeatherDisplay:10.37,2013-03-12 05:35:00,
2013-03-12 01:40:00,49.0,46.2,29.72,WNW,287,4.7,12.0,90,0.09,RA,,0.09,WeatherDisplay:10.37,2013-03-12 05:40:00,
2013-03-12 01:45:00,48.7,45.9,29.73,WNW,297,3.0,12.0,90,0.10,RA,,0.10,WeatherDisplay:10.37,2013-03-12 05:45:00,
2013-03-12 01:50:00,48.4,45.3,29.72,West,259,2.7,12.0,89,0.11,RA,,0.12,WeatherDisplay:10.37,2013-03-12 05:50:00,
2013-03-12 01:55:00,48.3,45.2,29.72,WSW,250,2.2,12.0,89,0.13,RA,,0.13,WeatherDisplay:10.37,2013-03-12 05:55:00,
2013-03-12 02:00:00,48.2,45.1,29.72,WNW,293,2.8,12.0,89,0.15,RA,,0.15,WeatherDisplay:10.37,2013-03-12 06:00:00,
2013-03-12 02:05:00,48.1,45.0,29.72,WSW,242,5.4,12.0,89,0.15,RA,,0.16,WeatherDisplay:10.37,2013-03-12 06:05:00,
2013-03-12 02:10:00,48.0,44.9,29.73,SW,218,3.4,12.0,89,0.17,RA,,0.17,WeatherDisplay:10.37,2013-03-12 06:10:00,
2013-03-12 02:15:00,47.9,44.8,29.73,ESE,107,0.0,12.0,89,0.17,RA,,0.17,WeatherDisplay:10.37,2013-03-12 06:15:00,
2013-03-12 02:20:00,47.8,44.7,29.72,SW,218,1.4,12.0,89,0.18,RA,,0.18,WeatherDisplay:10.37,2013-03-12 06:20:00,
2013-03-12 02:25:00,47.6,44.8,29.72,West,278,0.5,12.0,90,0.15,RA,,0.18,WeatherDisplay:10.37,2013-03-12 06:25:00,
2013-03-12 02:30:00,47.5,44.7,29.72,SSW,211,0.0,12.0,90,0.12,,,0.18,WeatherDisplay:10.37,2013-03-12 06:30:00,
2013-03-12 02:35:00,47.4,44.6,29.73,SSW,212,0.0,12.0,90,0.11,,,0.18,WeatherDisplay:10.37,2013-03-12 06:35:00,
2013-03-12 02:40:00,47.3,44.8,29.73,SSW,212,0.0,12.0,91,0.09,,,0.18,WeatherDisplay:10.37,2013-03-12 06:40:00,
2013-03-12 02:45:00,47.1,44.6,29.73,SSW,213,0.0,12.0,91,0.08,,,0.18,WeatherDisplay:10.37,2013-03-12 06:45:00,
2013-03-12 02:50:00,47.0,44.5,29.73,SW,224,0.2,12.0,91,0.08,RA,,0.19,WeatherDisplay:10.37,2013-03-12 06:50:00,
2013-03-12 02:55:00,46.9,44.7,29.73,WSW,240,0.6,12.0,92,0.06,RA,,0.19,WeatherDisplay:10.37,2013-03-12 06:55:00,
2013-03-12 03:00:00,46.8,44.6,29.73,SW,226,0.9,12.0,92,0.04,,,0.19,WeatherDisplay:10.37,2013-03-12 07:00:00,
2013-03-12 03:05:00,46.7,44.5,29.73,SW,226,0.0,12.0,92,0.05,RA,,0.20,WeatherDisplay:10.37,2013-03-12 07:05:00,
2013-03-12 03:10:00,46.7,44.8,29.73,SW,226,0.1,12.0,93,0.03,RA,,0.20,WeatherDisplay:10.37,2013-03-12 07:10:00,
2013-03-12 03:15:00,46.6,44.7,29.73,WSW,248,0.0,12.0,93,0.03,,,0.20,WeatherDisplay:10.37,2013-03-12 07:15:00,
2013-03-12 03:20:00,46.5,44.6,29.74,WSW,256,2.8,12.0,93,0.02,,,0.20,WeatherDisplay:10.37,2013-03-12 07:20:00,
2013-03-12 03:25:00,46.1,43.9,29.74,SW,222,3.8,12.0,92,0.03,RA,,0.21,WeatherDisplay:10.37,2013-03-12 07:25:00,
2013-03-12 03:30:00,45.5,42.4,29.74,West,260,4.6,12.0,89,0.03,RA,,0.21,WeatherDisplay:10.37,2013-03-12 07:30:00,
2013-03-12 03:35:00,45.2,42.2,29.74,West,277,5.9,12.0,89,0.03,,,0.21,WeatherDisplay:10.37,2013-03-12 07:35:00,
2013-03-12 03:40:00,44.9,41.9,29.74,SW,215,2.6,12.0,89,0.03,,,0.21,WeatherDisplay:10.37,2013-03-12 07:40:00,
2013-03-12 03:45:00,44.7,41.4,29.74,WSW,255,3.1,12.0,88,0.03,,,0.21,WeatherDisplay:10.37,2013-03-12 07:45:00,
2013-03-12 03:50:00,44.5,41.2,29.74,West,267,2.8,12.0,88,0.02,,,0.21,WeatherDisplay:10.37,2013-03-12 07:50:00,
2013-03-12 03:55:00,44.4,41.4,29.74,West,260,2.6,12.0,89,0.02,,,0.21,WeatherDisplay:10.37,2013-03-12 07:55:00,
2013-03-12 04:00:00,44.3,41.3,29.74,WSW,239,1.2,12.0,89,0.02,,,0.21,WeatherDisplay:10.37,2013-03-12 08:00:00,
2013-03-12 04:05:00,44.1,41.1,29.74,SW,215,3.8,12.0,89,0.01,,,0.21,WeatherDisplay:10.37,2013-03-12 08:05:00,
2013-03-12 04:10:00,44.1,41.1,29.74,West,269,6.3,12.0,89,0.01,,,0.21,WeatherDisplay:10.37,2013-03-12 08:10:00,
2013-03-12 04:15:00,44.0,40.4,29.74,West,274,5.5,12.0,87,0.01,,,0.21,WeatherDisplay:10.37,2013-03-12 08:15:00,
2013-03-12 04:20:00,43.9,40.0,29.75,WSW,253,5.9,14.0,86,0.01,,,0.21,WeatherDisplay:10.37,2013-03-12 08:20:00,
2013-03-12 04:25:00,43.8,39.9,29.75,WNW,283,5.2,14.0,86,0.00,,,0.21,WeatherDisplay:10.37,2013-03-12 08:25:00,
2013-03-12 04:30:00,43.7,39.8,29.75,WSW,250,3.9,14.0,86,0.00,,,0.21,WeatherDisplay:10.37,2013-03-12 08:30:00,
2013-03-12 04:35:00,43.6,39.7,29.75,WSW,239,4.5,14.0,86,0.00,,,0.21,WeatherDisplay:10.37,2013-03-12 08:35:00,
2013-03-12 04:40:00,43.4,39.5,29.75,WSW,257,4.4,14.0,86,0.00,,,0.21,WeatherDisplay:10.37,2013-03-12 08:40:00,
2013-03-12 04:45:00,43.2,39.3,29.74,WNW,287,3.4,14.0,86,0.00,,,0.21,WeatherDisplay:10.37,2013-03-12 08:45:00,
2013-03-12 04:50:00,43.1,39.5,29.74,West,270,4.3,14.0,87,0.00,,,0.21,WeatherDisplay:10.37,2013-03-12 08:50:00,
2013-03-12 04:55:00,42.9,39.3,29.74,West,276,2.9,14.0,87,0.00,,,0.21,WeatherDisplay:10.37,2013-03-12 08:55:00,
2013-03-12 05:00:00,42.8,39.2,29.75,WNW,284,3.0,14.0,87,0.00,,,0.21,WeatherDisplay:10.37,2013-03-12 09:00:00,
2013-03-12 05:05:00,42.6,39.0,29.75,SW,226,3.0,14.0,87,0.00,,,0.21,WeatherDisplay:10.37,2013-03-12 09:05:00,
2013-03-12 05:10:00,42.4,38.8,29.75,West,273,2.7,14.0,87,0.00,,,0.21,WeatherDisplay:10.37,2013-03-12 09:10:00,
2013-03-12 05:15:00,42.1,38.2,29.76,West,259,5.5,14.0,86,0.00,,,0.21,WeatherDisplay:10.37,2013-03-12 09:15:00,
2013-03-12 05:20:00,41.9,38.0,29.77,WSW,242,3.8,14.0,86,0.00,,,0.21,WeatherDisplay:10.37,2013-03-12 09:20:00,
2013-03-12 05:25:00,41.7,37.8,29.77,SW,224,5.6,14.0,86,0.00,,,0.21,WeatherDisplay:10.37,2013-03-12 09:25:00,
2013-03-12 05:30:00,41.3,37.4,29.77,SSW,200,4.9,14.0,86,0.01,RA,,0.22,WeatherDisplay:10.37,2013-03-12 09:30:00,
2013-03-12 05:35:00,40.9,37.0,29.77,WNW,283,8.3,14.0,86,0.01,RA,,0.22,WeatherDisplay:10.37,2013-03-12 09:35:00,
2013-03-12 05:40:00,40.5,36.9,29.77,SSW,200,7.0,16.1,87,0.01,,,0.22,WeatherDisplay:10.37,2013-03-12 09:40:00,
2013-03-12 05:45:00,40.3,36.4,29.77,SW,219,7.5,16.1,86,0.01,,,0.22,WeatherDisplay:10.37,2013-03-12 09:45:00,
2013-03-12 05:50:00,40.1,36.5,29.77,West,260,1.6,16.1,87,0.02,RA,,0.23,WeatherDisplay:10.37,2013-03-12 09:50:00,
2013-03-12 05:55:00,39.9,36.3,29.77,SSW,211,3.4,16.1,87,0.02,RA,,0.23,WeatherDisplay:10.37,2013-03-12 09:55:00,
2013-03-12 06:00:00,39.7,36.1,29.78,SSW,208,4.8,16.1,87,0.02,,,0.23,WeatherDisplay:10.37,2013-03-12 10:00:00,
2013-03-12 06:05:00,39.5,36.0,29.78,WSW,252,3.1,16.1,87,0.02,CLR,,0.23,WeatherDisplay:10.37,2013-03-12 10:05:00,
2013-03-12 06:10:00,39.3,35.5,29.78,SW,219,6.8,16.1,86,0.02,CLR,,0.23,WeatherDisplay:10.37,2013-03-12 10:10:00,
2013-03-12 06:15:00,39.3,35.5,29.79,SW,236,4.0,16.1,86,0.02,CLR,,0.23,WeatherDisplay:10.37,2013-03-12 10:15:00,
2013-03-12 06:20:00,39.2,35.7,29.78,SSW,205,3.1,16.1,87,0.02,CLR,,0.23,WeatherDisplay:10.37,2013-03-12 10:20:00,
2013-03-12 06:25:00,39.1,35.6,29.79,SW,221,3.5,16.1,87,0.02,CLR,,0.23,WeatherDisplay:10.37,2013-03-12 10:25:00,
2013-03-12 06:30:00,39.0,35.5,29.79,SW,214,4.7,16.1,87,0.01,CLR,,0.23,WeatherDisplay:10.37,2013-03-12 10:30:00,
2013-03-12 06:35:00,39.1,35.3,29.80,WSW,257,5.3,16.1,86,0.01,CLR,,0.23,WeatherDisplay:10.37,2013-03-12 10:35:00,
2013-03-12 06:40:00,39.0,35.2,29.81,SW,225,3.4,16.1,86,0.01,CLR,,0.23,WeatherDisplay:10.37,2013-03-12 10:40:00,
2013-03-12 06:45:00,39.0,35.2,29.80,West,267,5.3,16.1,86,0.01,CLR,,0.23,WeatherDisplay:10.37,2013-03-12 10:45:00,
2013-03-12 06:50:00,39.0,34.9,29.80,South,184,7.1,16.1,85,0.00,CLR,,0.23,WeatherDisplay:10.37,2013-03-12 10:50:00,
2013-03-12 06:55:00,39.0,34.9,29.80,WSW,248,2.6,16.1,85,0.00,CLR,,0.23,WeatherDisplay:10.37,2013-03-12 10:55:00,
2013-03-12 07:00:00,38.9,34.8,29.80,West,264,5.7,16.1,85,0.00,CLR,,0.23,WeatherDisplay:10.37,2013-03-12 11:00:00,
2013-03-12 07:05:00,38.8,34.7,29.79,West,266,5.4,16.1,85,0.00,,,0.23,WeatherDisplay:10.37,2013-03-12 11:05:00,
2013-03-12 07:10:00,38.7,34.6,29.80,West,262,3.3,16.1,85,0.00,,,0.23,WeatherDisplay:10.37,2013-03-12 11:10:00,
2013-03-12 07:15:00,38.5,34.4,29.80,WSW,239,4.5,16.1,85,0.00,,,0.23,WeatherDisplay:10.37,2013-03-12 11:15:00,
2013-03-12 07:20:00,38.5,34.1,29.80,SW,232,4.1,16.1,84,0.00,,,0.23,WeatherDisplay:10.37,2013-03-12 11:20:00,
2013-03-12 07:25:00,38.5,34.1,29.80,WSW,248,3.9,16.1,84,0.00,,,0.23,WeatherDisplay:10.37,2013-03-12 11:25:00,
2013-03-12 07:30:00,38.5,33.8,29.81,WSW,238,4.9,16.1,83,0.00,,,0.23,WeatherDisplay:10.37,2013-03-12 11:30:00,
2013-03-12 07:35:00,38.6,33.9,29.80,West,269,2.9,16.1,83,0.00,,,0.23,WeatherDisplay:10.37,2013-03-12 11:35:00,
2013-03-12 07:40:00,38.5,33.8,29.81,WSW,242,6.9,16.1,83,0.00,,,0.23,WeatherDisplay:10.37,2013-03-12 11:40:00,
2013-03-12 07:45:00,38.6,34.2,29.81,West,263,3.2,16.1,84,0.00,,,0.23,WeatherDisplay:10.37,2013-03-12 11:45:00,
2013-03-12 07:50:00,38.6,33.6,29.81,West,259,5.9,16.1,82,0.00,,,0.23,WeatherDisplay:10.37,2013-03-12 11:50:00,
2013-03-12 07:55:00,38.6,33.6,29.81,SW,228,4.1,16.1,82,0.00,,,0.23,WeatherDisplay:10.37,2013-03-12 11:55:00,
2013-03-12 08:00:00,38.6,33.6,29.81,West,274,3.7,16.1,82,0.00,,,0.23,WeatherDisplay:10.37,2013-03-12 12:00:00,
2013-03-12 08:05:00,38.6,33.6,29.81,West,276,4.5,16.1,82,0.00,,,0.23,WeatherDisplay:10.37,2013-03-12 12:05:00,
2013-03-12 08:10:00,38.7,33.7,29.81,WNW,292,3.9,16.1,82,0.00,,,0.23,WeatherDisplay:10.37,2013-03-12 12:10:00,
2013-03-12 08:15:00,38.7,33.7,29.81,WSW,250,4.4,16.1,82,0.00,,,0.23,WeatherDisplay:10.37,2013-03-12 12:15:00,
2013-03-12 08:20:00,38.8,33.5,29.81,WSW,256,3.1,16.1,81,0.00,,,0.23,WeatherDisplay:10.37,2013-03-12 12:20:00,
2013-03-12 08:25:00,38.8,33.8,29.81,SW,231,4.2,16.1,82,0.00,,,0.23,WeatherDisplay:10.37,2013-03-12 12:25:00,
2013-03-12 08:30:00,38.8,33.5,29.82,WSW,252,4.9,16.1,81,0.00,,,0.23,WeatherDisplay:10.37,2013-03-12 12:30:00,
2013-03-12 08:35:00,38.8,33.5,29.82,SW,218,3.2,16.1,81,0.00,,,0.23,WeatherDisplay:10.37,2013-03-12 12:35:00,
2013-03-12 08:40:00,38.9,33.6,29.81,SW,218,5.3,16.1,81,0.00,,,0.23,WeatherDisplay:10.37,2013-03-12 12:40:00,
2013-03-12 08:45:00,38.9,33.3,29.81,WSW,245,3.4,16.1,80,0.00,,,0.23,WeatherDisplay:10.37,2013-03-12 12:45:00,
2013-03-12 08:50:00,38.9,33.3,29.82,West,269,5.9,16.1,80,0.00,,,0.23,WeatherDisplay:10.37,2013-03-12 12:50:00,
2013-03-12 08:55:00,39.0,33.7,29.82,WSW,242,2.8,16.1,81,0.00,,,0.23,WeatherDisplay:10.37,2013-03-12 12:55:00,
2013-03-12 09:00:00,39.1,33.5,29.81,WSW,248,5.0,16.1,80,0.00,,,0.23,WeatherDisplay:10.37,2013-03-12 13:00:00,
2013-03-12 09:05:00,39.3,33.3,29.81,SW,229,4.4,16.1,79,0.00,,,0.23,WeatherDisplay:10.37,2013-03-12 13:05:00,
2013-03-12 09:10:00,39.4,33.4,29.82,SW,215,5.9,16.1,79,0.00,,,0.23,WeatherDisplay:10.37,2013-03-12 13:10:00,
2013-03-12 09:15:00,39.8,33.2,29.83,WSW,252,5.9,16.1,77,0.00,,,0.23,WeatherDisplay:10.37,2013-03-12 13:15:00,
2013-03-12 09:20:00,40.0,33.7,29.82,WSW,250,5.0,16.1,78,0.00,,,0.23,WeatherDisplay:10.37,2013-03-12 13:20:00,
2013-03-12 09:25:00,40.1,33.1,29.82,West,266,5.5,16.1,76,0.00,,,0.23,WeatherDisplay:10.37,2013-03-12 13:25:00,
2013-03-12 09:30:00,40.1,33.5,29.82,WSW,253,5.4,16.1,77,0.00,,,0.23,WeatherDisplay:10.37,2013-03-12 13:30:00,
2013-03-12 09:35:00,40.1,33.5,29.82,SE,139,4.0,16.1,77,0.00,,,0.23,WeatherDisplay:10.37,2013-03-12 13:35:00,
2013-03-12 09:40:00,40.2,33.2,29.82,SW,224,6.2,16.1,76,0.00,,,0.23,WeatherDisplay:10.37,2013-03-12 13:40:00,
2013-03-12 09:45:00,40.2,32.9,29.82,SW,215,5.5,16.1,75,0.00,,,0.23,WeatherDisplay:10.37,2013-03-12 13:45:00,
2013-03-12 09:50:00,40.2,33.2,29.82,WSW,245,6.7,16.1,76,0.00,,,0.23,WeatherDisplay:10.37,2013-03-12 13:50:00,
2013-03-12 09:55:00,40.3,33.3,29.82,SW,222,4.3,16.1,76,0.00,,,0.23,WeatherDisplay:10.37,2013-03-12 13:55:00,
2013-03-12 10:00:00,40.3,33.3,29.82,SW,216,4.1,16.1,76,0.00,,,0.23,WeatherDisplay:10.37,2013-03-12 14:00:00,
2013-03-12 10:05:00,40.2,33.2,29.82,SSW,208,4.0,16.1,76,0.00,,,0.23,WeatherDisplay:10.37,2013-03-12 14:05:00,
2013-03-12 10:10:00,40.3,33.0,29.82,SW,219,5.5,16.1,75,0.00,,,0.23,WeatherDisplay:10.37,2013-03-12 14:10:00,
2013-03-12 10:15:00,40.3,33.3,29.83,WSW,238,4.1,16.1,76,0.00,,,0.23,WeatherDisplay:10.37,2013-03-12 14:15:00,
2013-03-12 10:20:00,40.3,33.0,29.83,WSW,245,4.4,16.1,75,0.00,,,0.23,WeatherDisplay:10.37,2013-03-12 14:20:00,
2013-03-12 10:25:00,40.3,33.0,29.83,SW,226,3.6,16.1,75,0.00,,,0.23,WeatherDisplay:10.37,2013-03-12 14:25:00,
2013-03-12 10:30:00,40.3,33.0,29.83,SW,228,4.8,16.1,75,0.00,,,0.23,WeatherDisplay:10.37,2013-03-12 14:30:00,
2013-03-12 10:35:00,40.4,33.1,29.83,SW,229,5.7,16.1,75,0.00,,,0.23,WeatherDisplay:10.37,2013-03-12 14:35:00,
2013-03-12 10:40:00,40.5,33.9,29.82,West,259,3.6,16.1,77,0.00,,,0.23,WeatherDisplay:10.37,2013-03-12 14:40:00,
2013-03-12 10:45:00,40.6,33.3,29.82,WSW,255,4.4,16.1,75,0.00,,,0.23,WeatherDisplay:10.37,2013-03-12 14:45:00,
2013-03-12 10:50:00,40.7,33.4,29.82,WSW,241,5.5,16.1,75,0.00,,,0.23,WeatherDisplay:10.37,2013-03-12 14:50:00,
2013-03-12 10:55:00,40.8,33.2,29.82,SW,219,4.9,16.1,74,0.00,,,0.23,WeatherDisplay:10.37,2013-03-12 14:55:00,
2013-03-12 11:00:00,40.9,33.2,29.82,SW,233,5.8,16.1,74,0.00,,,0.23,WeatherDisplay:10.37,2013-03-12 15:00:00,
2013-03-12 11:05:00,40.9,32.9,29.82,WSW,252,4.4,16.1,73,0.00,,,0.23,WeatherDisplay:10.37,2013-03-12 15:05:00,
2013-03-12 11:10:00,41.3,34.0,29.82,SW,236,5.9,16.1,75,0.00,,,0.23,WeatherDisplay:10.37,2013-03-12 15:10:00,
2013-03-12 11:15:00,41.3,33.3,29.83,WSW,243,5.9,16.1,73,0.00,,,0.23,WeatherDisplay:10.37,2013-03-12 15:15:00,
2013-03-12 11:20:00,41.3,33.3,29.83,SW,217,6.6,16.1,73,0.00,,,0.23,WeatherDisplay:10.37,2013-03-12 15:20:00,
2013-03-12 11:25:00,41.1,33.1,29.83,West,264,6.0,16.1,73,0.00,,,0.23,WeatherDisplay:10.37,2013-03-12 15:25:00,
2013-03-12 11:30:00,41.1,33.4,29.83,SW,219,2.5,16.1,74,0.00,,,0.23,WeatherDisplay:10.37,2013-03-12 15:30:00,
2013-03-12 11:35:00,41.1,33.4,29.83,SSW,200,3.5,16.1,74,0.00,,,0.23,WeatherDisplay:10.37,2013-03-12 15:35:00,
2013-03-12 11:40:00,41.1,33.4,29.83,SSW,211,4.6,16.1,74,0.00,,,0.23,WeatherDisplay:10.37,2013-03-12 15:40:00,
2013-03-12 11:45:00,41.1,33.1,29.83,West,274,3.9,16.1,73,0.00,,,0.23,WeatherDisplay:10.37,2013-03-12 15:45:00,
2013-03-12 11:50:00,41.3,33.6,29.82,SW,222,3.9,16.1,74,0.00,,,0.23,WeatherDisplay:10.37,2013-03-12 15:50:00,
2013-03-12 11:55:00,41.4,33.0,29.82,WSW,248,3.5,16.1,72,0.00,,,0.23,WeatherDisplay:10.37,2013-03-12 15:55:00,
2013-03-12 12:00:00,41.6,33.6,29.82,WSW,255,5.4,16.1,73,0.00,,,0.23,WeatherDisplay:10.37,2013-03-12 16:00:00,
2013-03-12 12:05:00,41.6,32.9,29.82,West,260,6.1,19.6,71,0.00,,,0.23,WeatherDisplay:10.37,2013-03-12 16:05:00,
2013-03-12 12:10:00,41.9,32.8,29.82,WSW,239,5.8,19.6,70,0.00,,,0.23,WeatherDisplay:10.37,2013-03-12 16:10:00,
2013-03-12 12:15:00,42.2,32.8,29.81,SW,228,9.0,19.6,69,0.00,,,0.23,WeatherDisplay:10.37,2013-03-12 16:15:00,
2013-03-12 12:20:00,42.2,33.1,29.82,West,276,5.1,19.6,70,0.00,,,0.23,WeatherDisplay:10.37,2013-03-12 16:20:00,
2013-03-12 12:25:00,42.4,32.9,29.82,WNW,283,6.4,19.6,69,0.00,,,0.23,WeatherDisplay:10.37,2013-03-12 16:25:00,
2013-03-12 12:30:00,42.3,33.2,29.82,West,266,6.3,19.6,70,0.00,,,0.23,WeatherDisplay:10.37,2013-03-12 16:30:00,
2013-03-12 12:35:00,42.4,33.3,29.82,WSW,248,7.7,19.6,70,0.00,,,0.23,WeatherDisplay:10.37,2013-03-12 16:35:00,
2013-03-12 12:40:00,42.2,33.1,29.82,SW,235,7.1,19.6,70,0.00,,,0.23,WeatherDisplay:10.37,2013-03-12 16:40:00,
2013-03-12 12:45:00,42.2,33.5,29.82,SW,225,8.9,19.6,71,0.00,,,0.23,WeatherDisplay:10.37,2013-03-12 16:45:00,
2013-03-12 12:50:00,42.2,33.5,29.82,West,260,8.3,19.6,71,0.00,,,0.23,WeatherDisplay:10.37,2013-03-12 16:50:00,
2013-03-12 12:55:00,42.1,33.4,29.82,SW,232,9.3,19.6,71,0.00,,,0.23,WeatherDisplay:10.37,2013-03-12 16:55:00,
2013-03-12 13:00:00,42.0,33.3,29.82,WSW,256,7.3,19.6,71,0.00,,,0.23,WeatherDisplay:10.37,2013-03-12 17:00:00,
2013-03-12 13:05:00,42.1,33.4,29.82,West,270,8.6,19.6,71,0.00,,,0.23,WeatherDisplay:10.37,2013-03-12 17:05:00,
2013-03-12 13:10:00,42.0,33.3,29.82,West,259,7.3,19.6,71,0.00,,,0.23,WeatherDisplay:10.37,2013-03-12 17:10:00,
2013-03-12 13:15:00,42.0,33.6,29.82,SW,234,5.7,19.6,72,0.00,,,0.23,WeatherDisplay:10.37,2013-03-12 17:15:00,
2013-03-12 13:20:00,41.8,33.1,29.83,WSW,257,5.8,19.6,71,0.00,,,0.23,WeatherDisplay:10.37,2013-03-12 17:20:00,
2013-03-12 13:25:00,41.9,32.8,29.83,WSW,248,6.5,19.6,70,0.00,,,0.23,WeatherDisplay:10.37,2013-03-12 17:25:00,
2013-03-12 13:30:00,42.1,33.0,29.83,SW,215,6.9,19.6,70,0.00,,,0.23,WeatherDisplay:10.37,2013-03-12 17:30:00,
2013-03-12 13:35:00,42.2,33.5,29.83,WSW,246,5.3,19.6,71,0.00,,,0.23,WeatherDisplay:10.37,2013-03-12 17:35:00,
2013-03-12 13:40:00,42.4,33.7,29.83,WSW,250,4.7,19.6,71,0.00,,,0.23,WeatherDisplay:10.37,2013-03-12 17:40:00,
2013-03-12 13:45:00,42.0,32.9,29.82,WSW,250,7.4,19.6,70,0.01,RA,,0.24,WeatherDisplay:10.37,2013-03-12 17:45:00,
2013-03-12 13:50:00,41.7,32.6,29.82,West,262,8.5,19.6,70,0.01,RA,,0.24,WeatherDisplay:10.37,2013-03-12 17:50:00,
2013-03-12 13:55:00,41.3,32.6,29.82,WSW,250,9.1,19.6,71,0.01,,,0.24,WeatherDisplay:10.37,2013-03-12 17:55:00,
2013-03-12 14:00:00,41.3,32.6,29.81,West,259,7.3,19.6,71,0.01,,,0.24,WeatherDisplay:10.37,2013-03-12 18:00:00,
2013-03-12 14:05:00,41.5,32.8,29.81,WSW,255,5.1,19.6,71,0.01,,,0.24,WeatherDisplay:10.37,2013-03-12 18:05:00,
2013-03-12 14:10:00,41.6,33.2,29.81,West,280,7.2,19.6,72,0.01,,,0.24,WeatherDisplay:10.37,2013-03-12 18:10:00,
2013-03-12 14:15:00,41.4,33.4,29.81,WSW,257,5.4,19.6,73,0.01,,,0.24,WeatherDisplay:10.37,2013-03-12 18:15:00,
2013-03-12 14:20:00,41.1,32.8,29.81,SW,229,4.9,19.6,72,0.01,,,0.24,WeatherDisplay:10.37,2013-03-12 18:20:00,
2013-03-12 14:25:00,41.1,33.1,29.81,WNW,298,3.7,19.6,73,0.01,,,0.24,WeatherDisplay:10.37,2013-03-12 18:25:00,
2013-03-12 14:30:00,41.4,33.4,29.81,NW,316,5.5,19.6,73,0.01,,,0.24,WeatherDisplay:10.37,2013-03-12 18:30:00,
2013-03-12 14:35:00,41.5,33.5,29.81,West,276,5.2,19.6,73,0.01,,,0.24,WeatherDisplay:10.37,2013-03-12 18:35:00,
2013-03-12 14:40:00,41.2,32.9,29.81,WSW,245,6.1,19.6,72,0.01,,,0.24,WeatherDisplay:10.37,2013-03-12 18:40:00,
2013-03-12 14:45:00,41.4,33.7,29.81,West,269,4.6,19.6,74,0.00,,,0.24,WeatherDisplay:10.37,2013-03-12 18:45:00,
2013-03-12 14:50:00,41.3,33.3,29.80,WSW,248,5.5,19.6,73,0.00,,,0.24,WeatherDisplay:10.37,2013-03-12 18:50:00,
2013-03-12 14:55:00,41.1,33.1,29.80,WSW,245,7.1,19.6,73,0.00,,,0.24,WeatherDisplay:10.37,2013-03-12 18:55:00,
2013-03-12 15:00:00,40.7,32.7,29.80,WSW,257,9.0,19.6,73,0.00,,,0.24,WeatherDisplay:10.37,2013-03-12 19:00:00,
2013-03-12 15:05:00,40.5,32.5,29.80,WNW,290,10.9,19.6,73,0.00,,,0.24,WeatherDisplay:10.37,2013-03-12 19:05:00,
2013-03-12 15:10:00,40.2,32.2,29.81,West,267,8.9,19.6,73,0.00,,,0.24,WeatherDisplay:10.37,2013-03-12 19:10:00,
2013-03-12 15:15:00,40.1,32.5,29.81,SW,236,8.3,19.6,74,0.00,,,0.24,WeatherDisplay:10.37,2013-03-12 19:15:00,
2013-03-12 15:20:00,39.9,32.3,29.81,West,280,7.9,19.6,74,0.00,,,0.24,WeatherDisplay:10.37,2013-03-12 19:20:00,
2013-03-12 15:25:00,39.6,32.0,29.82,SW,219,10.2,19.6,74,0.00,,,0.24,WeatherDisplay:10.37,2013-03-12 19:25:00,
2013-03-12 15:30:00,39.4,32.1,29.82,SW,217,8.5,19.6,75,0.00,,,0.24,WeatherDisplay:10.37,2013-03-12 19:30:00,
2013-03-12 15:35:00,39.2,31.9,29.82,WSW,245,7.6,19.6,75,0.00,,,0.24,WeatherDisplay:10.37,2013-03-12 19:35:00,
2013-03-12 15:40:00,39.2,31.9,29.82,West,273,6.7,19.6,75,0.00,,,0.24,WeatherDisplay:10.37,2013-03-12 19:40:00,
2013-03-12 15:45:00,39.1,32.2,29.82,WSW,255,8.8,19.6,76,0.00,,,0.24,WeatherDisplay:10.37,2013-03-12 19:45:00,
2013-03-12 15:50:00,39.2,31.9,29.82,SW,228,6.5,19.6,75,0.00,,,0.24,WeatherDisplay:10.37,2013-03-12 19:50:00,
2013-03-12 15:55:00,39.4,32.1,29.82,SW,214,4.7,19.6,75,0.00,,,0.24,WeatherDisplay:10.37,2013-03-12 19:55:00,
2013-03-12 16:00:00,39.3,31.7,29.83,West,267,7.9,19.6,74,0.00,,,0.24,WeatherDisplay:10.37,2013-03-12 20:00:00,
2013-03-12 16:05:00,39.3,32.0,29.83,WSW,253,5.0,19.6,75,0.00,,,0.24,WeatherDisplay:10.37,2013-03-12 20:05:00,
2013-03-12 16:10:00,39.1,31.8,29.83,SSW,210,5.8,19.6,75,0.00,,,0.24,WeatherDisplay:10.37,2013-03-12 20:10:00,
2013-03-12 16:15:00,39.0,31.4,29.83,West,262,7.3,19.6,74,0.00,,,0.24,WeatherDisplay:10.37,2013-03-12 20:15:00,
2013-03-12 16:20:00,39.0,31.4,29.83,West,280,4.7,19.6,74,0.00,,,0.24,WeatherDisplay:10.37,2013-03-12 20:20:00,
2013-03-12 16:25:00,38.9,31.3,29.83,SW,217,8.9,19.6,74,0.00,,,0.24,WeatherDisplay:10.37,2013-03-12 20:25:00,
2013-03-12 16:30:00,38.8,31.2,29.83,West,277,11.7,19.6,74,0.00,,,0.24,WeatherDisplay:10.37,2013-03-12 20:30:00,
2013-03-12 16:35:00,38.7,31.5,29.83,WNW,287,6.6,19.6,75,0.00,,,0.24,WeatherDisplay:10.37,2013-03-12 20:35:00,
2013-03-12 16:40:00,38.7,31.1,29.83,SW,228,6.3,19.6,74,0.00,,,0.24,WeatherDisplay:10.37,2013-03-12 20:40:00,
2013-03-12 16:45:00,38.5,30.9,29.83,SW,234,8.9,19.6,74,0.00,,,0.24,WeatherDisplay:10.37,2013-03-12 20:45:00,
2013-03-12 16:50:00,38.4,30.8,29.84,WSW,250,10.6,19.6,74,0.00,,,0.24,WeatherDisplay:10.37,2013-03-12 20:50:00,
2013-03-12 16:55:00,38.3,30.7,29.84,West,280,7.9,19.6,74,0.00,,,0.24,WeatherDisplay:10.37,2013-03-12 20:55:00,
2013-03-12 17:00:00,38.3,30.7,29.84,SSW,206,6.5,19.6,74,0.00,,,0.24,WeatherDisplay:10.37,2013-03-12 21:00:00,
2013-03-12 17:05:00,38.3,30.4,29.84,SSW,195,8.1,19.6,73,0.00,,,0.24,WeatherDisplay:10.37,2013-03-12 21:05:00,
2013-03-12 17:10:00,38.5,30.3,29.83,WSW,253,9.2,19.6,72,0.00,,,0.24,WeatherDisplay:10.37,2013-03-12 21:10:00,
2013-03-12 17:15:00,38.4,30.5,29.84,SSW,210,7.8,19.6,73,0.00,,,0.24,WeatherDisplay:10.37,2013-03-12 21:15:00,
2013-03-12 17:20:00,38.4,30.5,29.84,SW,225,7.3,19.6,73,0.00,,,0.24,WeatherDisplay:10.37,2013-03-12 21:20:00,
2013-03-12 17:25:00,38.6,30.4,29.84,West,266,9.8,19.6,72,0.00,,,0.24,WeatherDisplay:10.37,2013-03-12 21:25:00,
2013-03-12 17:30:00,38.7,30.4,29.84,West,260,4.4,19.6,72,0.00,,,0.24,WeatherDisplay:10.37,2013-03-12 21:30:00,
2013-03-12 17:35:00,39.0,30.7,29.84,SSW,200,8.0,19.6,72,0.00,,,0.24,WeatherDisplay:10.37,2013-03-12 21:35:00,
2013-03-12 17:40:00,39.3,31.0,29.84,SW,235,3.1,19.6,72,0.00,,,0.24,WeatherDisplay:10.37,2013-03-12 21:40:00,
2013-03-12 17:45:00,39.2,30.6,29.85,WSW,253,5.9,19.6,71,0.00,,,0.24,WeatherDisplay:10.37,2013-03-12 21:45:00,
2013-03-12 17:50:00,39.2,30.2,29.85,West,271,7.5,19.6,70,0.00,,,0.24,WeatherDisplay:10.37,2013-03-12 21:50:00,
2013-03-12 17:55:00,39.1,30.1,29.85,SSW,208,8.4,19.6,70,0.00,,,0.24,WeatherDisplay:10.37,2013-03-12 21:55:00,
2013-03-12 18:00:00,39.0,30.4,29.85,SW,233,4.9,19.6,71,0.00,,,0.24,WeatherDisplay:10.37,2013-03-12 22:00:00,
2013-03-12 18:05:00,39.1,30.1,29.85,SW,226,5.5,19.6,70,0.00,,,0.24,WeatherDisplay:10.37,2013-03-12 22:05:00,
2013-03-12 18:10:00,39.1,30.5,29.85,West,259,8.1,19.6,71,0.00,,,0.24,WeatherDisplay:10.37,2013-03-12 22:10:00,
2013-03-12 18:15:00,39.0,30.0,29.85,SSW,205,4.7,19.6,70,0.00,,,0.24,WeatherDisplay:10.37,2013-03-12 22:15:00,
2013-03-12 18:20:00,39.0,30.0,29.86,WSW,245,8.0,19.6,70,0.00,,,0.24,WeatherDisplay:10.37,2013-03-12 22:20:00,
2013-03-12 18:25:00,39.0,30.0,29.86,SW,218,5.8,19.6,70,0.00,,,0.24,WeatherDisplay:10.37,2013-03-12 22:25:00,
2013-03-12 18:30:00,38.9,29.9,29.86,WSW,238,9.2,19.6,70,0.00,,,0.24,WeatherDisplay:10.37,2013-03-12 22:30:00,
2013-03-12 18:35:00,38.7,29.8,29.86,West,266,6.3,19.6,70,0.00,,,0.24,WeatherDisplay:10.37,2013-03-12 22:35:00,
2013-03-12 18:40:00,38.5,30.3,29.86,SW,236,7.7,19.6,72,0.00,,,0.24,WeatherDisplay:10.37,2013-03-12 22:40:00,
2013-03-12 18:45:00,38.4,29.8,29.87,WSW,239,5.8,19.6,71,0.00,,,0.24,WeatherDisplay:10.37,2013-03-12 22:45:00,
2013-03-12 18:50:00,38.3,29.7,29.87,West,271,8.2,19.6,71,0.00,,,0.24,WeatherDisplay:10.37,2013-03-12 22:50:00,
2013-03-12 18:55:00,38.1,29.2,29.87,SW,226,8.5,19.6,70,0.00,,,0.24,WeatherDisplay:10.37,2013-03-12 22:55:00,
2013-03-12 19:00:00,38.0,29.4,29.87,SW,219,6.1,19.6,71,0.00,,,0.24,WeatherDisplay:10.37,2013-03-12 23:00:00,
2013-03-12 19:05:00,37.9,29.7,29.88,SW,219,6.6,19.6,72,0.00,,,0.24,WeatherDisplay:10.37,2013-03-12 23:05:00,
2013-03-12 19:10:00,37.7,29.5,29.88,South,170,3.8,19.6,72,0.00,,,0.24,WeatherDisplay:10.37,2013-03-12 23:10:00,
2013-03-12 19:15:00,37.6,29.7,29.88,South,187,3.6,19.6,73,0.00,,,0.24,WeatherDisplay:10.37,2013-03-12 23:15:00,
2013-03-12 19:20:00,37.5,29.6,29.88,SSW,205,6.4,19.6,73,0.00,,,0.24,WeatherDisplay:10.37,2013-03-12 23:20:00,
2013-03-12 19:25:00,37.4,29.5,29.88,SW,225,2.6,19.6,73,0.00,,,0.24,WeatherDisplay:10.37,2013-03-12 23:25:00,
2013-03-12 19:30:00,37.3,29.4,29.88,SW,229,9.2,19.6,73,0.00,,,0.24,WeatherDisplay:10.37,2013-03-12 23:30:00,
2013-03-12 19:35:00,37.3,29.1,29.88,WSW,253,7.1,19.6,72,0.00,,,0.24,WeatherDisplay:10.37,2013-03-12 23:35:00,
2013-03-12 19:40:00,37.2,29.3,29.88,SW,222,3.6,19.6,73,0.00,,,0.24,WeatherDisplay:10.37,2013-03-12 23:40:00,
2013-03-12 19:45:00,37.2,29.3,29.88,SW,219,6.6,19.6,73,0.00,,,0.24,WeatherDisplay:10.37,2013-03-12 23:45:00,
2013-03-12 19:50:00,37.1,29.2,29.88,SSW,204,5.6,19.6,73,0.00,,,0.24,WeatherDisplay:10.37,2013-03-12 23:50:00,
2013-03-12 19:55:00,37.1,29.2,29.88,NW,311,2.5,19.6,73,0.00,,,0.24,WeatherDisplay:10.37,2013-03-12 23:55:00,
2013-03-12 20:00:00,37.1,29.2,29.88,SW,225,6.8,19.6,73,0.00,,,0.24,WeatherDisplay:10.37,2013-03-13 00:00:00,
2013-03-12 20:05:00,37.1,29.2,29.88,SW,236,4.1,19.6,73,0.00,,,0.24,WeatherDisplay:10.37,2013-03-13 00:05:00,
2013-03-12 20:10:00,37.0,29.1,29.88,SW,228,6.2,19.6,73,0.00,,,0.24,WeatherDisplay:10.37,2013-03-13 00:10:00,
2013-03-12 20:15:00,37.0,29.1,29.89,SW,222,8.0,19.6,73,0.00,,,0.24,WeatherDisplay:10.37,2013-03-13 00:15:00,
2013-03-12 20:20:00,37.0,29.1,29.89,SW,225,4.4,19.6,73,0.00,,,0.24,WeatherDisplay:10.37,2013-03-13 00:20:00,
2013-03-12 20:25:00,36.9,29.4,29.89,West,278,3.1,19.6,74,0.00,,,0.24,WeatherDisplay:10.37,2013-03-13 00:25:00,
2013-03-12 20:30:00,36.9,29.4,29.89,SW,236,3.9,19.6,74,0.00,,,0.24,WeatherDisplay:10.37,2013-03-13 00:30:00,
2013-03-12 20:35:00,36.8,29.6,29.89,WNW,283,2.9,19.6,75,0.00,,,0.24,WeatherDisplay:10.37,2013-03-13 00:35:00,
2013-03-12 20:40:00,36.7,29.2,29.89,SW,232,5.7,19.6,74,0.00,,,0.24,WeatherDisplay:10.37,2013-03-13 00:40:00,
2013-03-12 20:45:00,36.7,29.2,29.90,WSW,243,7.2,19.6,74,0.00,,,0.24,WeatherDisplay:10.37,2013-03-13 00:45:00,
2013-03-12 20:50:00,36.6,29.4,29.90,SSW,212,4.8,19.6,75,0.00,,,0.24,WeatherDisplay:10.37,2013-03-13 00:50:00,
2013-03-12 20:55:00,36.6,29.4,29.90,SW,225,5.3,19.6,75,0.00,,,0.24,WeatherDisplay:10.37,2013-03-13 00:55:00,
2013-03-12 21:00:00,36.5,29.3,29.89,SW,231,8.8,19.6,75,0.00,,,0.24,WeatherDisplay:10.37,2013-03-13 01:00:00,
2013-03-12 21:05:00,36.6,29.1,29.90,SSW,207,6.8,19.6,74,0.00,,,0.24,WeatherDisplay:10.37,2013-03-13 01:05:00,
2013-03-12 21:10:00,36.5,29.0,29.90,WSW,255,8.4,19.6,74,0.00,,,0.24,WeatherDisplay:10.37,2013-03-13 01:10:00,
2013-03-12 21:15:00,36.5,29.3,29.90,WSW,250,6.1,19.6,75,0.00,,,0.24,WeatherDisplay:10.37,2013-03-13 01:15:00,
2013-03-12 21:20:00,36.4,29.2,29.90,SW,214,4.2,19.6,75,0.00,,,0.24,WeatherDisplay:10.37,2013-03-13 01:20:00,
2013-03-12 21:25:00,36.4,29.2,29.90,SW,233,8.3,19.6,75,0.00,,,0.24,WeatherDisplay:10.37,2013-03-13 01:25:00,
2013-03-12 21:30:00,36.3,29.1,29.90,SW,224,3.0,19.6,75,0.00,,,0.24,WeatherDisplay:10.37,2013-03-13 01:30:00,
2013-03-12 21:35:00,36.3,29.1,29.90,SW,227,7.2,19.6,75,0.00,,,0.24,WeatherDisplay:10.37,2013-03-13 01:35:00,
2013-03-12 21:40:00,36.3,29.1,29.90,West,280,2.7,19.6,75,0.00,,,0.24,WeatherDisplay:10.37,2013-03-13 01:40:00,
2013-03-12 21:45:00,36.2,29.0,29.91,WSW,255,7.7,19.6,75,0.00,,,0.24,WeatherDisplay:10.37,2013-03-13 01:45:00,
2013-03-12 21:50:00,36.2,29.4,29.91,WSW,253,3.3,19.6,76,0.00,,,0.24,WeatherDisplay:10.37,2013-03-13 01:50:00,
2013-03-12 21:55:00,36.2,29.0,29.91,WSW,246,5.7,19.6,75,0.00,,,0.24,WeatherDisplay:10.37,2013-03-13 01:55:00,
2013-03-12 22:00:00,36.1,29.3,29.90,SW,224,4.6,19.6,76,0.00,,,0.24,WeatherDisplay:10.37,2013-03-13 02:00:00,
2013-03-12 22:05:00,36.0,29.2,29.90,SW,217,6.6,19.6,76,0.00,,,0.24,WeatherDisplay:10.37,2013-03-13 02:05:00,
2013-03-12 22:10:00,35.9,29.1,29.91,SSW,211,5.4,19.6,76,0.00,,,0.24,WeatherDisplay:10.37,2013-03-13 02:10:00,
2013-03-12 22:15:00,35.8,29.0,29.91,WSW,250,3.7,19.6,76,0.00,,,0.24,WeatherDisplay:10.37,2013-03-13 02:15:00,
2013-03-12 22:20:00,35.7,28.6,29.91,West,262,3.7,19.6,75,0.00,,,0.24,WeatherDisplay:10.37,2013-03-13 02:20:00,
2013-03-12 22:25:00,35.6,28.8,29.91,WSW,255,7.6,19.6,76,0.00,,,0.24,WeatherDisplay:10.37,2013-03-13 02:25:00,
2013-03-12 22:30:00,35.5,28.7,29.90,SW,232,3.7,19.6,76,0.00,,,0.24,WeatherDisplay:10.37,2013-03-13 02:30:00,
2013-03-12 22:35:00,35.4,28.6,29.91,WSW,249,2.6,19.6,76,0.00,,,0.24,WeatherDisplay:10.37,2013-03-13 02:35:00,
2013-03-12 22:40:00,35.4,28.6,29.91,WSW,240,4.2,19.6,76,0.00,,,0.24,WeatherDisplay:10.37,2013-03-13 02:40:00,
2013-03-12 22:45:00,35.3,28.5,29.90,WSW,243,4.6,19.6,76,0.00,,,0.24,WeatherDisplay:10.37,2013-03-13 02:45:00,
2013-03-12 22:50:00,35.4,28.6,29.90,West,264,5.8,19.6,76,0.00,,,0.24,WeatherDisplay:10.37,2013-03-13 02:50:00,
2013-03-12 22:55:00,35.3,28.5,29.90,SW,217,4.5,19.6,76,0.00,,,0.24,WeatherDisplay:10.37,2013-03-13 02:55:00,
2013-03-12 23:00:00,35.4,28.6,29.91,West,259,4.2,19.6,76,0.00,,,0.24,WeatherDisplay:10.37,2013-03-13 03:00:00,
2013-03-12 23:05:00,35.4,28.6,29.90,WSW,245,6.1,19.6,76,0.00,,,0.24,WeatherDisplay:10.37,2013-03-13 03:05:00,
2013-03-12 23:10:00,35.3,28.5,29.90,SW,221,5.7,19.6,76,0.00,,,0.24,WeatherDisplay:10.37,2013-03-13 03:10:00,
2013-03-12 23:15:00,35.4,28.3,29.90,SW,236,5.1,19.6,75,0.00,,,0.24,WeatherDisplay:10.37,2013-03-13 03:15:00,
2013-03-12 23:20:00,35.4,28.6,29.90,West,262,8.0,19.6,76,0.00,,,0.24,WeatherDisplay:10.37,2013-03-13 03:20:00,
2013-03-12 23:25:00,35.4,28.3,29.90,WSW,248,6.2,19.6,75,0.00,,,0.24,WeatherDisplay:10.37,2013-03-13 03:25:00,
2013-03-12 23:30:00,35.4,28.3,29.90,SW,219,5.2,19.6,75,0.00,,,0.24,WeatherDisplay:10.37,2013-03-13 03:30:00,
2013-03-12 23:35:00,35.5,28.4,29.91,SW,231,3.1,19.6,75,0.00,,,0.24,WeatherDisplay:10.37,2013-03-13 03:35:00,
2013-03-12 23:40:00,35.5,28.4,29.91,SW,214,6.6,19.6,75,0.00,,,0.24,WeatherDisplay:10.37,2013-03-13 03:40:00,
2013-03-12 23:45:00,35.4,27.9,29.91,SW,215,1.4,19.6,74,0.00,,,0.24,WeatherDisplay:10.37,2013-03-13 03:45:00,
2013-03-12 23:50:00,35.4,27.9,29.91,SW,218,5.3,19.6,74,0.00,,,0.24,WeatherDisplay:10.37,2013-03-13 03:50:00,
2013-03-12 23:55:00,35.4,28.3,29.91,SW,226,3.2,14.0,75,0.00,RA,,0.24,WeatherDisplay:10.37,2013-03-13 03:55:00,